createdAt,value
2022-11-10T00:02:39.668Z,41.33
2022-11-10T00:05:25.994Z,44.88
2022-11-10T00:08:13.888Z,44.55
2022-11-10T00:11:07.176Z,44.03
2022-11-10T00:14:13.173Z,42.67
2022-11-10T00:17:02.785Z,45.17
2022-11-10T00:19:49.646Z,47.03
2022-11-10T00:22:38.658Z,43.78
2022-11-10T00:25:26.975Z,44.35
2022-11-10T00:28:13.229Z,42.97
2022-11-10T00:31:04.927Z,44.03
2022-11-10T00:33:51.604Z,42.45
2022-11-10T00:36:39.100Z,41.67
2022-11-10T00:39:25.875Z,47.03
2022-11-10T00:42:12.626Z,41.30
2022-11-10T00:44:58.983Z,42.30
2022-11-10T00:47:47.010Z,42.92
2022-11-10T00:50:33.776Z,43.30
2022-11-10T00:53:21.085Z,35.85
2022-11-10T00:56:10.696Z,38.22
2022-11-10T00:58:57.391Z,37.75
2022-11-10T01:01:44.283Z,41.75
2022-11-10T01:04:31.112Z,50.72
2022-11-10T01:07:17.379Z,51.60
2022-11-10T01:10:05.317Z,51.70
2022-11-10T01:12:51.587Z,46.67
2022-11-10T01:15:43.076Z,42.60
2022-11-10T01:18:29.554Z,42.83
2022-11-10T01:21:16.515Z,43.00
2022-11-10T01:24:02.967Z,41.33
2022-11-10T01:26:49.820Z,43.80
2022-11-10T01:29:36.095Z,42.85
2022-11-10T01:32:22.996Z,48.58
2022-11-10T01:35:09.958Z,47.08
2022-11-10T01:37:57.033Z,45.40
2022-11-10T01:40:44.553Z,42.75
2022-11-10T01:43:31.300Z,48.75
2022-11-10T01:46:17.478Z,40.97
2022-11-10T01:49:05.310Z,37.28
2022-11-10T01:52:09.844Z,45.75
2022-11-10T01:54:56.592Z,43.78
2022-11-10T01:57:43.137Z,41.55
2022-11-10T02:00:29.947Z,40.15
2022-11-10T02:03:40.554Z,41.97
2022-11-10T02:06:31.889Z,41.63
2022-11-10T02:09:19.122Z,46.05
2022-11-10T02:12:07.850Z,43.08
2022-11-10T02:14:54.794Z,41.38
2022-11-10T02:17:42.121Z,43.22
2022-11-10T02:20:28.735Z,38.17
2022-11-10T02:23:30.835Z,40.15
2022-11-10T02:26:24.004Z,41.83
2022-11-10T02:29:10.842Z,43.25
2022-11-10T02:31:57.617Z,38.03
2022-11-10T02:34:44.652Z,40.42
2022-11-10T02:37:31.664Z,43.28
2022-11-10T02:40:18.833Z,41.33
2022-11-10T02:43:12.774Z,46.42
2022-11-10T02:45:59.740Z,38.50
2022-11-10T02:48:46.532Z,43.08
2022-11-10T02:51:33.425Z,45.63
2022-11-10T02:54:19.949Z,44.97
2022-11-10T02:57:06.952Z,37.22
2022-11-10T02:59:53.212Z,35.67
2022-11-10T03:02:39.927Z,37.40
2022-11-10T03:05:26.363Z,41.47
2022-11-10T03:08:13.283Z,39.10
2022-11-10T03:10:59.902Z,47.83
2022-11-10T03:14:00.995Z,48.25
2022-11-10T03:16:48.563Z,42.78
2022-11-10T03:19:35.608Z,46.67
2022-11-10T03:22:22.165Z,47.95
2022-11-10T03:25:10.033Z,44.70
2022-11-10T03:27:56.625Z,41.90
2022-11-10T03:30:44.251Z,37.17
2022-11-10T03:33:30.909Z,47.53
2022-11-10T03:36:17.813Z,41.97
2022-11-10T03:39:04.547Z,39.78
2022-11-10T03:41:50.879Z,47.35
2022-11-10T03:44:37.737Z,39.58
2022-11-10T03:47:24.401Z,43.85
2022-11-10T03:50:10.978Z,48.90
2022-11-10T03:52:57.606Z,47.45
2022-11-10T03:55:44.079Z,41.75
2022-11-10T03:58:30.772Z,45.42
2022-11-10T04:01:17.416Z,43.47
2022-11-10T04:04:04.333Z,44.38
2022-11-10T04:07:09.705Z,45.22
2022-11-10T04:09:56.496Z,43.30
2022-11-10T04:13:01.920Z,43.13
2022-11-10T04:15:48.818Z,44.55
2022-11-10T04:18:35.464Z,42.25
2022-11-10T04:21:22.102Z,44.92
2022-11-10T04:24:09.555Z,42.58
2022-11-10T04:26:56.257Z,49.72
2022-11-10T04:29:42.687Z,47.05
2022-11-10T04:32:29.632Z,40.97
2022-11-10T04:35:16.041Z,45.75
2022-11-10T04:38:02.888Z,53.72
2022-11-10T04:40:49.647Z,52.85
2022-11-10T04:43:36.350Z,58.88
2022-11-10T04:46:34.833Z,55.33
2022-11-10T04:49:21.394Z,55.40
2022-11-10T04:52:08.140Z,58.00
2022-11-10T04:54:54.590Z,51.55
2022-11-10T04:57:42.311Z,56.33
2022-11-10T05:00:28.950Z,56.97
2022-11-10T05:03:15.696Z,53.88
2022-11-10T05:06:02.369Z,47.53
2022-11-10T05:08:49.144Z,58.80
2022-11-10T05:11:35.720Z,50.75
2022-11-10T05:14:22.239Z,58.63
2022-11-10T05:17:08.943Z,53.38
2022-11-10T05:19:55.606Z,56.53
2022-11-10T05:23:08.582Z,53.70
2022-11-10T05:25:55.375Z,53.35
2022-11-10T05:28:44.488Z,55.35
2022-11-10T05:31:31.356Z,53.30
2022-11-10T05:34:17.956Z,53.92
2022-11-10T05:37:04.585Z,59.65
2022-11-10T05:39:51.235Z,53.28
2022-11-10T05:42:53.002Z,51.88
2022-11-10T05:45:39.717Z,56.05
2022-11-10T05:48:26.448Z,47.55
2022-11-10T05:51:13.099Z,51.42
2022-11-10T05:53:59.672Z,60.20
2022-11-10T05:56:46.440Z,53.53
2022-11-10T05:59:33.304Z,61.13
2022-11-10T06:02:20.144Z,52.83
2022-11-10T06:05:07.933Z,55.97
2022-11-10T06:07:54.404Z,59.00
2022-11-10T06:10:41.221Z,62.40
2022-11-10T06:13:27.951Z,50.90
2022-11-10T06:16:14.751Z,60.42
2022-11-10T06:19:02.081Z,60.75
2022-11-10T06:21:49.382Z,59.30
2022-11-10T06:24:36.470Z,57.17
2022-11-10T06:27:23.226Z,59.88
2022-11-10T06:30:11.083Z,61.42
2022-11-10T06:32:59.054Z,59.65
2022-11-10T06:35:46.188Z,58.00
2022-11-10T06:38:32.899Z,57.55
2022-11-10T06:41:25.057Z,51.67
2022-11-10T06:44:12.370Z,56.75
2022-11-10T06:46:59.267Z,57.40
2022-11-10T06:49:45.880Z,62.95
2022-11-10T06:52:32.767Z,57.95
2022-11-10T06:55:19.587Z,59.38
2022-11-10T06:58:06.582Z,56.90
2022-11-10T07:00:54.625Z,58.63
2022-11-10T07:04:05.117Z,59.78
2022-11-10T07:06:48.430Z,61.35
2022-11-10T07:09:35.066Z,63.22
2022-11-10T07:12:22.214Z,57.03
2022-11-10T07:15:10.128Z,63.17
2022-11-10T07:17:57.422Z,61.08
2022-11-10T07:20:44.188Z,56.55
2022-11-10T07:23:35.148Z,61.88
2022-11-10T07:26:21.756Z,65.55
2022-11-10T07:29:08.758Z,56.35
2022-11-10T07:31:56.507Z,61.10
2022-11-10T07:34:43.192Z,61.50
2022-11-10T07:37:30.646Z,54.35
2022-11-10T07:40:17.444Z,63.58
2022-11-10T07:43:04.287Z,59.65
2022-11-10T07:45:52.410Z,59.75
2022-11-10T07:48:38.837Z,59.75
2022-11-10T07:51:27.143Z,59.30
2022-11-10T07:54:14.104Z,66.07
2022-11-10T07:57:00.844Z,64.70
2022-11-10T07:59:47.412Z,60.22
2022-11-10T08:02:33.765Z,58.53
2022-11-10T08:05:20.742Z,52.92
2022-11-10T08:08:08.080Z,59.03
2022-11-10T08:10:58.052Z,59.70
2022-11-10T08:13:44.887Z,53.30
2022-11-10T08:16:31.617Z,54.88
2022-11-10T08:19:18.023Z,57.90
2022-11-10T08:22:05.210Z,52.55
2022-11-10T08:24:51.516Z,55.63
2022-11-10T08:27:38.532Z,54.28
2022-11-10T08:30:25.089Z,53.30
2022-11-10T08:33:15.995Z,55.40
2022-11-10T08:36:03.073Z,60.57
2022-11-10T08:38:50.317Z,55.38
2022-11-10T08:41:36.891Z,54.45
2022-11-10T08:44:25.109Z,55.08
2022-11-10T08:47:11.468Z,58.90
2022-11-10T08:49:58.336Z,53.30
2022-11-10T08:52:44.651Z,53.83
2022-11-10T08:55:31.559Z,51.42
2022-11-10T08:58:24.054Z,55.90
2022-11-10T09:01:12.115Z,54.28
2022-11-10T09:03:58.389Z,60.13
2022-11-10T09:06:45.425Z,60.72
2022-11-10T09:09:31.847Z,61.42
2022-11-10T09:12:18.789Z,62.20
2022-11-10T09:15:08.798Z,58.55
2022-11-10T09:17:59.002Z,55.17
2022-11-10T09:20:45.780Z,60.75
2022-11-10T09:23:32.574Z,60.13
2022-11-10T09:26:19.354Z,61.90
2022-11-10T09:29:08.449Z,64.28
2022-11-10T09:31:55.348Z,61.22
2022-11-10T09:34:44.175Z,65.03
2022-11-10T09:37:32.320Z,57.33
2022-11-10T09:40:28.494Z,58.17
2022-11-10T09:43:46.871Z,58.28
2022-11-10T09:46:41.960Z,56.53
2022-11-10T09:50:02.502Z,59.15
2022-11-10T09:52:50.412Z,55.10
2022-11-10T09:55:53.868Z,55.03
2022-11-10T09:58:44.387Z,59.25
2022-11-10T10:01:54.861Z,59.40
2022-11-10T10:05:11.739Z,56.03
2022-11-10T10:08:11.178Z,53.45
2022-11-10T10:11:19.029Z,51.75
2022-11-10T10:14:27.829Z,62.10
2022-11-10T10:17:39.751Z,54.25
2022-11-10T10:20:33.394Z,54.63
2022-11-10T10:23:54.460Z,57.38
2022-11-10T10:26:54.738Z,59.13
2022-11-10T10:29:45.714Z,51.45
2022-11-10T10:32:32.668Z,57.10
2022-11-10T10:35:19.631Z,58.28
2022-11-10T10:38:20.550Z,51.20
2022-11-10T10:41:33.661Z,59.15
2022-11-10T10:44:20.734Z,52.28
2022-11-10T10:47:07.704Z,51.30
2022-11-10T10:50:15.554Z,51.25
2022-11-10T10:53:19.783Z,49.33
2022-11-10T10:56:14.533Z,56.55
2022-11-10T10:59:06.566Z,73.70
2022-11-10T11:01:54.837Z,77.95
2022-11-10T11:04:41.638Z,65.78
2022-11-10T11:07:28.163Z,58.95
2022-11-10T11:10:24.349Z,42.55
2022-11-10T11:13:24.988Z,45.85
2022-11-10T11:16:12.867Z,43.72
2022-11-10T11:18:59.964Z,50.72
2022-11-10T11:22:17.736Z,48.63
2022-11-10T11:25:38.450Z,48.10
2022-11-10T11:28:42.435Z,49.75
2022-11-10T11:32:00.250Z,44.40
2022-11-10T11:35:11.267Z,44.75
2022-11-10T11:38:16.083Z,49.63
2022-11-10T11:41:20.927Z,51.53
2022-11-10T11:44:42.707Z,46.85
2022-11-10T11:48:49.954Z,44.33
2022-11-10T11:51:58.152Z,39.50
2022-11-10T11:54:48.008Z,33.63
2022-11-10T11:57:56.759Z,34.92
2022-11-10T12:01:22.905Z,34.55
2022-11-10T12:04:40.226Z,31.92
2022-11-10T12:07:57.548Z,30.08
2022-11-10T12:11:02.663Z,32.17
2022-11-10T12:14:22.453Z,28.90
2022-11-10T12:17:32.570Z,35.15
2022-11-10T12:21:03.359Z,28.08
2022-11-10T12:24:28.300Z,28.50
2022-11-10T12:27:30.656Z,27.05
2022-11-10T12:30:18.880Z,29.75
2022-11-10T12:33:26.837Z,28.23
2022-11-10T12:36:17.944Z,33.47
2022-11-10T12:39:22.091Z,33.22
2022-11-10T12:42:23.271Z,28.05
2022-11-10T12:45:29.200Z,34.40
2022-11-10T12:48:17.938Z,34.40
2022-11-10T12:51:21.949Z,31.10
2022-11-10T12:54:16.711Z,30.77
2022-11-10T12:57:14.399Z,28.83
2022-11-10T13:00:28.962Z,29.52
2022-11-10T13:03:32.773Z,34.08
2022-11-10T13:06:35.799Z,33.00
2022-11-10T13:09:39.262Z,40.00
2022-11-10T13:12:26.107Z,34.53
2022-11-10T13:15:37.744Z,32.08
2022-11-10T13:18:32.604Z,36.15
2022-11-10T13:21:19.392Z,34.47
2022-11-10T13:24:28.284Z,31.45
2022-11-10T13:27:43.495Z,32.78
2022-11-10T13:30:40.020Z,34.03
2022-11-10T13:33:26.710Z,32.95
2022-11-10T13:36:47.649Z,32.72
2022-11-10T13:39:34.945Z,31.90
2022-11-10T13:42:25.033Z,31.88
2022-11-10T13:45:40.090Z,35.33
2022-11-10T13:48:45.137Z,32.85
2022-11-10T13:52:11.777Z,32.13
2022-11-10T13:55:29.368Z,33.53
2022-11-10T13:58:28.713Z,31.23
2022-11-10T14:01:18.759Z,34.50
2022-11-10T14:04:05.367Z,36.80
2022-11-10T14:06:57.310Z,34.88
2022-11-10T14:09:50.823Z,30.88
2022-11-10T14:12:46.911Z,30.88
2022-11-10T14:15:54.420Z,37.50
2022-11-10T14:18:52.702Z,30.33
2022-11-10T14:21:57.922Z,33.75
2022-11-10T14:25:14.218Z,30.25
2022-11-10T14:28:02.110Z,32.13
2022-11-10T14:30:53.605Z,30.88
2022-11-10T14:33:40.437Z,30.15
2022-11-10T14:36:27.138Z,33.08
2022-11-10T14:39:16.390Z,31.27
2022-11-10T14:42:05.759Z,28.90
2022-11-10T14:45:07.928Z,35.45
2022-11-10T14:47:56.992Z,27.35
2022-11-10T14:50:44.014Z,35.28
2022-11-10T14:53:35.081Z,29.63
2022-11-10T14:56:42.857Z,27.53
2022-11-10T14:59:29.658Z,33.42
2022-11-10T15:02:19.924Z,37.60
2022-11-10T15:05:09.362Z,32.33
2022-11-10T15:07:58.444Z,29.92
2022-11-10T15:10:49.507Z,34.67
2022-11-10T15:13:39.592Z,33.50
2022-11-10T15:16:28.889Z,37.20
2022-11-10T15:19:32.148Z,40.25
2022-11-10T15:22:30.982Z,42.75
2022-11-10T15:25:22.516Z,39.92
2022-11-10T15:28:29.620Z,42.20
2022-11-10T15:32:13.131Z,39.17
2022-11-10T15:35:28.946Z,35.47
2022-11-10T15:38:30.375Z,41.30
2022-11-10T15:41:27.448Z,45.60
2022-11-10T15:44:23.486Z,40.78
2022-11-10T15:47:12.751Z,38.03
2022-11-10T15:50:01.219Z,42.00
2022-11-10T15:52:47.873Z,37.35
2022-11-10T15:55:34.699Z,39.65
2022-11-10T15:58:23.785Z,45.97
2022-11-10T16:01:13.584Z,40.08
2022-11-10T16:04:00.658Z,113.20
2022-11-10T16:06:47.963Z,120.60
2022-11-10T16:09:34.963Z,60.65
2022-11-10T16:12:23.038Z,45.88
2022-11-10T16:15:19.143Z,48.92
2022-11-10T16:18:20.722Z,50.53
2022-11-10T16:21:21.584Z,61.53
2022-11-10T16:24:09.421Z,96.10
2022-11-10T16:26:55.818Z,90.05
2022-11-10T16:29:43.836Z,100.90
2022-11-10T16:32:30.752Z,122.55
2022-11-10T16:35:17.687Z,60.35
2022-11-10T16:38:17.970Z,74.55
2022-11-10T16:41:11.513Z,59.85
2022-11-10T16:43:58.298Z,55.90
2022-11-10T16:46:56.110Z,50.78
2022-11-10T16:49:45.102Z,60.05
2022-11-10T16:52:31.664Z,47.88
2022-11-10T16:55:18.458Z,51.45
2022-11-10T16:58:04.946Z,46.38
2022-11-10T17:00:51.729Z,47.83
2022-11-10T17:03:47.549Z,48.40
2022-11-10T17:06:34.669Z,46.75
2022-11-10T17:09:28.378Z,44.90
2022-11-10T17:12:15.693Z,51.97
2022-11-10T17:15:02.486Z,46.95
2022-11-10T17:17:54.471Z,41.72
2022-11-10T17:20:46.593Z,42.90
2022-11-10T17:23:35.420Z,43.45
2022-11-10T17:27:12.313Z,41.60
2022-11-10T17:29:59.136Z,39.10
2022-11-10T17:33:04.103Z,35.78
2022-11-10T17:35:53.481Z,44.33
2022-11-10T17:38:41.910Z,36.83
2022-11-10T17:41:28.878Z,37.13
2022-11-10T17:44:16.610Z,46.90
2022-11-10T17:47:03.164Z,45.35
2022-11-10T17:49:49.679Z,45.40
2022-11-10T17:52:36.160Z,45.55
2022-11-10T17:55:29.789Z,51.10
2022-11-10T17:58:21.453Z,41.28
2022-11-10T18:01:19.790Z,40.95
2022-11-10T18:04:06.716Z,38.75
2022-11-10T18:06:53.492Z,32.97
2022-11-10T18:09:40.622Z,38.30
2022-11-10T18:12:28.133Z,37.58
2022-11-10T18:15:16.825Z,34.38
2022-11-10T18:18:03.451Z,30.38
2022-11-10T18:20:50.503Z,41.45
2022-11-10T18:23:37.535Z,34.53
2022-11-10T18:26:24.802Z,33.03
2022-11-10T18:29:11.486Z,39.78
2022-11-10T18:31:58.555Z,35.00
2022-11-10T18:34:44.940Z,38.00
2022-11-10T18:37:36.825Z,39.40
2022-11-10T18:40:25.671Z,42.17
2022-11-10T18:43:13.081Z,42.05
2022-11-10T18:45:59.391Z,41.78
2022-11-10T18:48:47.274Z,45.50
2022-11-10T18:51:34.152Z,49.88
2022-11-10T18:54:21.362Z,47.33
2022-11-10T18:57:11.979Z,41.63
2022-11-10T18:59:58.684Z,47.90
2022-11-10T19:02:45.224Z,46.10
2022-11-10T19:05:32.275Z,41.47
2022-11-10T19:08:18.725Z,36.13
2022-11-10T19:11:12.720Z,38.63
2022-11-10T19:14:03.888Z,41.15
2022-11-10T19:16:53.328Z,37.22
2022-11-10T19:19:40.018Z,35.20
2022-11-10T19:22:27.316Z,44.20
2022-11-10T19:25:14.048Z,48.90
2022-11-10T19:28:01.154Z,59.00
2022-11-10T19:30:47.512Z,53.67
2022-11-10T19:33:37.371Z,52.60
2022-11-10T19:36:27.374Z,60.13
2022-11-10T19:39:14.330Z,57.10
2022-11-10T19:42:01.110Z,65.20
2022-11-10T19:44:48.170Z,61.95
2022-11-10T19:47:34.624Z,63.83
2022-11-10T19:50:21.675Z,57.53
2022-11-10T19:53:08.406Z,48.33
2022-11-10T19:56:27.714Z,43.75
2022-11-10T19:59:20.147Z,44.38
2022-11-10T20:02:08.453Z,39.65
2022-11-10T20:05:13.811Z,42.42
2022-11-10T20:08:12.992Z,44.38
2022-11-10T20:11:07.694Z,51.50
2022-11-10T20:14:00.852Z,52.25
2022-11-10T20:16:47.629Z,48.38
2022-11-10T20:19:40.937Z,40.88
2022-11-10T20:22:27.841Z,36.13
2022-11-10T20:25:15.281Z,33.03
2022-11-10T20:28:06.067Z,36.30
2022-11-10T20:30:57.948Z,33.67
2022-11-10T20:33:45.576Z,34.97
2022-11-10T20:36:36.565Z,39.78
2022-11-10T20:39:23.255Z,50.47
2022-11-10T20:42:13.719Z,44.70
2022-11-10T20:45:00.501Z,41.28
2022-11-10T20:47:47.877Z,44.38
2022-11-10T20:50:34.621Z,41.53
2022-11-10T20:53:23.151Z,63.63
2022-11-10T20:56:12.390Z,53.70
2022-11-10T20:58:59.352Z,67.00
2022-11-10T21:01:46.861Z,99.47
2022-11-10T21:04:36.843Z,107.15
2022-11-10T21:07:27.657Z,111.50
2022-11-10T21:10:14.717Z,74.72
2022-11-10T21:13:01.267Z,42.30
2022-11-10T21:15:59.837Z,32.88
2022-11-10T21:18:46.591Z,29.17
2022-11-10T21:21:36.542Z,32.15
2022-11-10T21:24:23.233Z,57.50
2022-11-10T21:27:12.529Z,44.67
2022-11-10T21:29:59.312Z,32.95
2022-11-10T21:32:46.287Z,35.63
2022-11-10T21:35:38.180Z,37.15
2022-11-10T21:41:12.485Z,32.28
2022-11-10T21:43:59.597Z,33.17
2022-11-10T21:46:47.571Z,34.47
2022-11-10T21:49:34.193Z,29.92
2022-11-10T21:52:20.954Z,35.10
2022-11-10T21:55:08.748Z,45.25
2022-11-10T21:57:59.159Z,39.42
2022-11-10T22:00:46.292Z,36.20
2022-11-10T22:03:34.442Z,33.10
2022-11-10T22:06:23.637Z,30.17
2022-11-10T22:09:10.731Z,30.15
2022-11-10T22:12:16.195Z,34.45
2022-11-10T22:15:22.555Z,30.40
2022-11-10T22:18:34.602Z,27.58
2022-11-10T22:21:21.296Z,27.95
2022-11-10T22:24:24.696Z,23.88
2022-11-10T22:27:11.427Z,31.42
2022-11-10T22:29:58.749Z,28.70
2022-11-10T22:32:45.078Z,31.67
2022-11-10T22:35:44.105Z,29.77
2022-11-10T22:38:39.186Z,33.47
2022-11-10T22:41:44.775Z,30.35
2022-11-10T22:44:31.358Z,34.00
2022-11-10T22:47:18.168Z,30.00
2022-11-10T22:50:05.702Z,33.10
2022-11-10T22:52:52.334Z,24.10
2022-11-10T22:55:38.769Z,29.15
2022-11-10T22:58:25.603Z,29.17
2022-11-10T23:01:12.983Z,30.95
2022-11-10T23:04:01.769Z,28.85
2022-11-10T23:06:48.805Z,25.52
2022-11-10T23:09:35.621Z,26.45
2022-11-10T23:12:22.155Z,28.70
2022-11-10T23:15:09.455Z,31.90
2022-11-10T23:17:56.094Z,35.95
2022-11-10T23:20:42.606Z,33.67
2022-11-10T23:23:33.527Z,30.05
2022-11-10T23:26:34.400Z,28.73
2022-11-10T23:29:21.077Z,27.73
2022-11-10T23:32:07.875Z,25.58
2022-11-10T23:34:54.593Z,26.45
2022-11-10T23:37:41.336Z,30.98
2022-11-10T23:40:28.043Z,31.90
2022-11-10T23:43:15.735Z,31.73
2022-11-10T23:46:07.127Z,25.27
2022-11-10T23:48:54.111Z,27.38
2022-11-10T23:51:40.464Z,29.25
2022-11-10T23:54:27.488Z,28.02
2022-11-10T23:57:14.134Z,24.75
